White Pigeon, Iowa
Current Conditions -  °F | °C
As of 12:15 PM on Thursday 29 Jan 2015 (Local Time) from KOOA Reporting Station
Overcast Overcast  
Wind Chill: 20°   Ceiling: 1500
Heat Index: 33°   Visibility: 10mi
Dew Point: 28°   Wind: 22mph
Humidity: 83%   Direction: 330°NNW
Pressure: 30.23"   Gusts: 32mph
Location:  41.5522°N, 92.1189°W
Report Text: KOOA 291815Z AUTO 33019G28KT 10SM OVC015 00/M02 A3023 RMK AO2 T00031022
Loading
Personal Weather Stations






























Interactive Weather Map New forecast layout! Learn more

10-Day Weather Forecast

Advertisements
Track Severe Weather on mobile